createdAt,value
2023-07-14T15:32:55.021Z,25.85
2023-07-14T15:36:05.930Z,25.96
2023-07-14T15:39:19.689Z,25.05
2023-07-14T15:42:27.432Z,25.89
2023-07-14T15:45:35.055Z,25.07
2023-07-14T15:48:46.206Z,24.58
2023-07-14T15:51:55.444Z,23.73
2023-07-14T15:55:06.353Z,25.01
2023-07-14T15:58:22.722Z,25.48
2023-07-14T16:01:37.106Z,27.62
2023-07-14T16:04:46.563Z,26.07
2023-07-14T16:07:59.736Z,25.34
2023-07-14T16:11:21.480Z,25.50
2023-07-14T16:14:29.143Z,23.97
2023-07-14T16:17:35.439Z,26.37
2023-07-14T16:20:50.633Z,25.78
2023-07-14T16:23:58.194Z,27.72
2023-07-14T16:27:06.020Z,28.02
2023-07-14T16:30:20.971Z,25.64
2023-07-14T16:33:28.034Z,27.99
2023-07-14T16:36:38.128Z,28.98
2023-07-14T16:39:45.811Z,27.50
2023-07-14T16:42:54.663Z,28.16
2023-07-14T16:46:01.937Z,28.22
2023-07-14T16:49:08.328Z,26.85
2023-07-14T16:52:30.533Z,26.59
2023-07-14T16:55:36.781Z,29.41
2023-07-14T16:58:44.600Z,29.54
2023-07-14T17:01:52.622Z,27.86
2023-07-14T17:05:01.140Z,28.50
2023-07-14T17:08:23.228Z,29.66
2023-07-14T17:11:31.290Z,29.93
2023-07-14T17:14:37.997Z,29.82
2023-07-14T17:17:45.123Z,29.65
2023-07-14T17:20:56.687Z,31.76
2023-07-14T17:24:06.798Z,34.88
2023-07-14T17:27:19.104Z,32.63
2023-07-14T17:30:28.495Z,32.88
2023-07-14T17:33:34.587Z,33.57
2023-07-14T17:36:45.644Z,33.08
2023-07-14T17:39:57.060Z,30.51
2023-07-14T17:43:07.518Z,32.45
2023-07-14T17:46:13.841Z,34.00
2023-07-14T17:49:22.324Z,33.58
2023-07-14T17:52:29.325Z,33.78
2023-07-14T17:55:39.010Z,34.44
2023-07-14T17:58:45.151Z,33.83
2023-07-14T18:01:52.893Z,34.19
2023-07-14T18:04:59.266Z,34.54
2023-07-14T18:08:09.221Z,34.99
2023-07-14T18:11:26.478Z,34.30
2023-07-14T18:14:34.892Z,34.20
2023-07-14T18:17:41.324Z,33.75
2023-07-14T18:20:49.179Z,35.86
2023-07-14T18:23:55.582Z,34.46
2023-07-14T18:27:05.116Z,34.72
2023-07-14T18:30:20.738Z,42.78
2023-07-14T18:33:31.172Z,50.92
2023-07-14T18:36:38.381Z,63.66
2023-07-14T18:39:48.349Z,86.18
2023-07-14T18:43:00.711Z,93.31
2023-07-14T18:46:11.743Z,86.84
2023-07-14T18:52:11.700Z,70.90
2023-07-14T18:55:22.209Z,67.14
2023-07-14T18:58:32.185Z,61.47
2023-07-14T19:01:39.876Z,58.80
2023-07-14T19:08:36.772Z,46.87
2023-07-14T19:11:44.074Z,48.09
2023-07-14T19:14:50.352Z,47.54
2023-07-14T19:17:58.170Z,45.14
2023-07-14T19:21:16.633Z,45.83
2023-07-14T19:24:27.815Z,46.26
2023-07-14T19:27:34.200Z,45.66
2023-07-14T19:30:41.564Z,47.45
2023-07-14T19:33:49.841Z,45.81
2023-07-14T19:36:56.922Z,47.80
2023-07-14T19:40:05.890Z,48.42
2023-07-14T19:43:20.271Z,48.13
2023-07-14T19:46:26.726Z,47.50
